sensor_id;sensor_type;location;lat;lon;timestamp;pressure;altitude;pressure_sealevel;temperature;humidity
21821;BME280;11073;48.586;12.066;2022-10-03T00:01:50;97078.72;;;12.49;79.19
21821;BME280;11073;48.586;12.066;2022-10-03T00:04:43;97084.16;;;12.49;79.15
21821;BME280;11073;48.586;12.066;2022-10-03T00:07:26;97082.13;;;12.44;78.91
21821;BME280;11073;48.586;12.066;2022-10-03T00:10:08;97083.19;;;12.43;79.04
21821;BME280;11073;48.586;12.066;2022-10-03T00:12:48;97088.28;;;12.39;79.08
21821;BME280;11073;48.586;12.066;2022-10-03T00:15:25;97086.00;;;12.36;78.88
21821;BME280;11073;48.586;12.066;2022-10-03T00:18:03;97093.34;;;12.36;78.90
21821;BME280;11073;48.586;12.066;2022-10-03T00:20:47;97095.47;;;12.34;78.78
21821;BME280;11073;48.586;12.066;2022-10-03T00:23:22;97090.28;;;12.32;78.65
21821;BME280;11073;48.586;12.066;2022-10-03T00:26:01;97097.34;;;12.33;78.88
21821;BME280;11073;48.586;12.066;2022-10-03T00:29:23;97110.34;;;12.31;78.74
21821;BME280;11073;48.586;12.066;2022-10-03T00:32:01;97104.78;;;12.26;78.76
21821;BME280;11073;48.586;12.066;2022-10-03T00:34:44;97112.91;;;12.26;78.75
21821;BME280;11073;48.586;12.066;2022-10-03T00:37:26;97118.59;;;12.25;78.66
21821;BME280;11073;48.586;12.066;2022-10-03T00:40:18;97128.84;;;12.23;78.71
21821;BME280;11073;48.586;12.066;2022-10-03T00:46:36;97118.69;;;12.18;78.47
21821;BME280;11073;48.586;12.066;2022-10-03T00:49:31;97121.63;;;12.17;78.30
21821;BME280;11073;48.586;12.066;2022-10-03T00:52:13;97124.81;;;12.13;78.38
21821;BME280;11073;48.586;12.066;2022-10-03T00:54:56;97132.34;;;12.11;78.15
21821;BME280;11073;48.586;12.066;2022-10-03T00:57:52;97130.09;;;12.08;78.51
21821;BME280;11073;48.586;12.066;2022-10-03T01:00:26;97125.72;;;12.07;78.56
21821;BME280;11073;48.586;12.066;2022-10-03T01:03:22;97124.91;;;12.07;78.25
21821;BME280;11073;48.586;12.066;2022-10-03T01:06:10;97128.91;;;12.04;78.55
21821;BME280;11073;48.586;12.066;2022-10-03T01:08:57;97137.50;;;12.01;78.11
21821;BME280;11073;48.586;12.066;2022-10-03T01:11:44;97138.22;;;11.97;78.07
21821;BME280;11073;48.586;12.066;2022-10-03T01:14:32;97131.97;;;11.96;78.15
21821;BME280;11073;48.586;12.066;2022-10-03T01:17:12;97134.88;;;11.95;78.23
21821;BME280;11073;48.586;12.066;2022-10-03T01:20:05;97144.31;;;11.92;78.10
21821;BME280;11073;48.586;12.066;2022-10-03T01:25:52;97134.38;;;11.86;78.22
21821;BME280;11073;48.586;12.066;2022-10-03T01:28:41;97130.25;;;11.83;78.19
21821;BME280;11073;48.586;12.066;2022-10-03T01:31:35;97142.41;;;11.81;78.32
21821;BME280;11073;48.586;12.066;2022-10-03T01:34:11;97136.19;;;11.74;78.29
21821;BME280;11073;48.586;12.066;2022-10-03T01:36:50;97135.00;;;11.70;78.36
21821;BME280;11073;48.586;12.066;2022-10-03T01:39:25;97137.69;;;11.70;78.04
21821;BME280;11073;48.586;12.066;2022-10-03T01:41:58;97134.41;;;11.68;78.31
21821;BME280;11073;48.586;12.066;2022-10-03T01:44:38;97142.53;;;11.68;78.35
21821;BME280;11073;48.586;12.066;2022-10-03T01:47:18;97144.63;;;11.66;78.37
21821;BME280;11073;48.586;12.066;2022-10-03T01:49:54;97144.50;;;11.60;78.19
21821;BME280;11073;48.586;12.066;2022-10-03T01:52:32;97144.94;;;11.57;78.14
21821;BME280;11073;48.586;12.066;2022-10-03T01:55:09;97150.38;;;11.57;78.33
21821;BME280;11073;48.586;12.066;2022-10-03T01:57:45;97146.22;;;11.55;78.51
21821;BME280;11073;48.586;12.066;2022-10-03T02:00:19;97160.84;;;11.54;78.45
21821;BME280;11073;48.586;12.066;2022-10-03T02:02:54;97165.69;;;11.52;78.49
21821;BME280;11073;48.586;12.066;2022-10-03T02:05:37;97169.22;;;11.52;78.35
21821;BME280;11073;48.586;12.066;2022-10-03T02:08:21;97165.06;;;11.50;78.71
21821;BME280;11073;48.586;12.066;2022-10-03T02:10:59;97162.75;;;11.53;78.93
21821;BME280;11073;48.586;12.066;2022-10-03T02:13:39;97167.69;;;11.56;78.71
21821;BME280;11073;48.586;12.066;2022-10-03T02:16:21;97173.72;;;11.58;78.85
21821;BME280;11073;48.586;12.066;2022-10-03T02:18:59;97178.94;;;11.60;78.82
21821;BME280;11073;48.586;12.066;2022-10-03T02:21:32;97177.63;;;11.63;78.52
21821;BME280;11073;48.586;12.066;2022-10-03T02:24:14;97171.16;;;11.64;78.95
21821;BME280;11073;48.586;12.066;2022-10-03T02:27:04;97171.16;;;11.64;78.45
21821;BME280;11073;48.586;12.066;2022-10-03T02:29:52;97174.94;;;11.63;78.78
21821;BME280;11073;48.586;12.066;2022-10-03T02:35:50;97167.03;;;11.61;79.02
21821;BME280;11073;48.586;12.066;2022-10-03T02:38:32;97171.84;;;11.59;78.63
21821;BME280;11073;48.586;12.066;2022-10-03T02:41:16;97169.97;;;11.59;78.91
21821;BME280;11073;48.586;12.066;2022-10-03T02:50:46;97174.25;;;11.67;79.00
21821;BME280;11073;48.586;12.066;2022-10-03T02:53:39;97174.03;;;11.69;79.21
21821;BME280;11073;48.586;12.066;2022-10-03T02:56:32;97180.50;;;11.68;79.30
21821;BME280;11073;48.586;12.066;2022-10-03T02:59:42;97185.69;;;11.69;79.37
21821;BME280;11073;48.586;12.066;2022-10-03T03:05:26;97187.44;;;11.64;79.61
21821;BME280;11073;48.586;12.066;2022-10-03T03:08:38;97190.13;;;11.64;79.57
21821;BME280;11073;48.586;12.066;2022-10-03T03:11:35;97195.78;;;11.62;79.35
21821;BME280;11073;48.586;12.066;2022-10-03T03:14:53;97192.50;;;11.60;79.51
21821;BME280;11073;48.586;12.066;2022-10-03T03:17:31;97193.16;;;11.55;79.56
21821;BME280;11073;48.586;12.066;2022-10-03T03:20:10;97190.44;;;11.55;79.64
21821;BME280;11073;48.586;12.066;2022-10-03T03:22:58;97197.75;;;11.55;80.13
21821;BME280;11073;48.586;12.066;2022-10-03T03:25:47;97193.75;;;11.57;80.17
21821;BME280;11073;48.586;12.066;2022-10-03T03:28:31;97202.13;;;11.56;80.33
21821;BME280;11073;48.586;12.066;2022-10-03T03:31:09;97208.13;;;11.58;80.15
21821;BME280;11073;48.586;12.066;2022-10-03T03:33:48;97208.97;;;11.58;80.28
21821;BME280;11073;48.586;12.066;2022-10-03T03:36:29;97213.78;;;11.56;80.33
21821;BME280;11073;48.586;12.066;2022-10-03T03:39:11;97220.88;;;11.57;80.41
21821;BME280;11073;48.586;12.066;2022-10-03T03:41:56;97218.97;;;11.58;80.22
21821;BME280;11073;48.586;12.066;2022-10-03T03:44:47;97218.78;;;11.59;80.34
21821;BME280;11073;48.586;12.066;2022-10-03T03:47:33;97220.88;;;11.57;80.29
21821;BME280;11073;48.586;12.066;2022-10-03T03:50:24;97215.09;;;11.54;80.16
21821;BME280;11073;48.586;12.066;2022-10-03T03:53:18;97220.28;;;11.55;80.53
21821;BME280;11073;48.586;12.066;2022-10-03T03:56:04;97219.69;;;11.53;80.34
21821;BME280;11073;48.586;12.066;2022-10-03T03:58:42;97217.41;;;11.50;80.64
21821;BME280;11073;48.586;12.066;2022-10-03T04:01:42;97223.44;;;11.52;80.39
21821;BME280;11073;48.586;12.066;2022-10-03T04:04:27;97230.53;;;11.53;80.24
21821;BME280;11073;48.586;12.066;2022-10-03T04:07:05;97236.38;;;11.50;80.35
21821;BME280;11073;48.586;12.066;2022-10-03T04:10:12;97241.81;;;11.50;80.21
21821;BME280;11073;48.586;12.066;2022-10-03T04:15:50;97229.84;;;11.40;80.49
21821;BME280;11073;48.586;12.066;2022-10-03T04:21:58;97248.06;;;11.51;80.53
21821;BME280;11073;48.586;12.066;2022-10-03T04:24:46;97249.75;;;11.52;80.46
21821;BME280;11073;48.586;12.066;2022-10-03T04:27:31;97252.47;;;11.52;80.75
21821;BME280;11073;48.586;12.066;2022-10-03T04:30:08;97257.41;;;11.55;80.94
21821;BME280;11073;48.586;12.066;2022-10-03T04:32:52;97251.53;;;11.58;80.78
21821;BME280;11073;48.586;12.066;2022-10-03T04:35:51;97242.38;;;11.59;80.78
21821;BME280;11073;48.586;12.066;2022-10-03T04:38:38;97243.19;;;11.59;80.71
21821;BME280;11073;48.586;12.066;2022-10-03T04:41:19;97242.13;;;11.60;80.69
21821;BME280;11073;48.586;12.066;2022-10-03T04:44:00;97241.91;;;11.62;80.63
21821;BME280;11073;48.586;12.066;2022-10-03T04:46:39;97240.00;;;11.63;80.40
21821;BME280;11073;48.586;12.066;2022-10-03T04:49:18;97236.00;;;11.65;80.67
21821;BME280;11073;48.586;12.066;2022-10-03T04:51:55;97236.25;;;11.64;80.50
21821;BME280;11073;48.586;12.066;2022-10-03T04:54:33;97237.91;;;11.65;80.69
21821;BME280;11073;48.586;12.066;2022-10-03T04:57:13;97236.84;;;11.66;80.43
21821;BME280;11073;48.586;12.066;2022-10-03T04:59:49;97234.75;;;11.68;80.52
21821;BME280;11073;48.586;12.066;2022-10-03T05:02:40;97239.94;;;11.69;79.96
21821;BME280;11073;48.586;12.066;2022-10-03T05:05:22;97242.88;;;11.68;79.89
21821;BME280;11073;48.586;12.066;2022-10-03T05:08:01;97245.22;;;11.64;79.98
21821;BME280;11073;48.586;12.066;2022-10-03T05:10:49;97250.03;;;11.62;80.11
21821;BME280;11073;48.586;12.066;2022-10-03T05:13:21;97256.13;;;11.57;80.14
21821;BME280;11073;48.586;12.066;2022-10-03T05:16:07;97242.78;;;11.56;79.79
21821;BME280;11073;48.586;12.066;2022-10-03T05:18:41;97245.50;;;11.56;79.94
21821;BME280;11073;48.586;12.066;2022-10-03T05:21:15;97259.91;;;11.56;80.03
21821;BME280;11073;48.586;12.066;2022-10-03T05:23:55;97262.38;;;11.58;79.89
21821;BME280;11073;48.586;12.066;2022-10-03T05:26:40;97266.97;;;11.57;79.63
21821;BME280;11073;48.586;12.066;2022-10-03T05:29:19;97269.91;;;11.56;79.63
21821;BME280;11073;48.586;12.066;2022-10-03T05:31:55;97276.75;;;11.58;79.81
21821;BME280;11073;48.586;12.066;2022-10-03T05:34:49;97276.56;;;11.60;79.80
21821;BME280;11073;48.586;12.066;2022-10-03T05:37:47;97287.53;;;11.65;79.54
21821;BME280;11073;48.586;12.066;2022-10-03T05:40:23;97286.59;;;11.59;79.74
21821;BME280;11073;48.586;12.066;2022-10-03T05:43:06;97293.66;;;11.60;79.35
21821;BME280;11073;48.586;12.066;2022-10-03T05:45:55;97282.19;;;11.58;79.50
21821;BME280;11073;48.586;12.066;2022-10-03T05:48:32;97290.56;;;11.57;79.50
21821;BME280;11073;48.586;12.066;2022-10-03T05:51:42;97295.31;;;11.62;79.21
21821;BME280;11073;48.586;12.066;2022-10-03T05:54:41;97297.19;;;11.61;79.27
21821;BME280;11073;48.586;12.066;2022-10-03T05:57:29;97293.66;;;11.60;79.26
21821;BME280;11073;48.586;12.066;2022-10-03T06:00:07;97295.75;;;11.58;79.02
21821;BME280;11073;48.586;12.066;2022-10-03T06:03:03;97296.16;;;11.62;79.13
21821;BME280;11073;48.586;12.066;2022-10-03T06:05:53;97298.78;;;11.69;79.42
21821;BME280;11073;48.586;12.066;2022-10-03T06:08:51;97298.03;;;11.80;79.12
21821;BME280;11073;48.586;12.066;2022-10-03T06:11:51;97308.47;;;11.83;79.03
21821;BME280;11073;48.586;12.066;2022-10-03T06:14:35;97312.63;;;11.85;79.32
21821;BME280;11073;48.586;12.066;2022-10-03T06:17:33;97301.09;;;11.90;79.18
21821;BME280;11073;48.586;12.066;2022-10-03T06:20:41;97309.59;;;11.94;78.88
21821;BME280;11073;48.586;12.066;2022-10-03T06:23:36;97310.06;;;11.91;79.05
21821;BME280;11073;48.586;12.066;2022-10-03T06:26:28;97314.25;;;11.86;79.15
21821;BME280;11073;48.586;12.066;2022-10-03T06:29:32;97311.72;;;11.92;78.89
21821;BME280;11073;48.586;12.066;2022-10-03T06:32:36;97314.44;;;11.92;78.91
21821;BME280;11073;48.586;12.066;2022-10-03T06:38:51;97316.41;;;12.03;78.97
21821;BME280;11073;48.586;12.066;2022-10-03T06:45:10;97325.66;;;12.13;78.71
21821;BME280;11073;48.586;12.066;2022-10-03T06:47:58;97320.63;;;12.17;78.74
21821;BME280;11073;48.586;12.066;2022-10-03T06:50:42;97327.06;;;12.16;78.48
21821;BME280;11073;48.586;12.066;2022-10-03T06:53:32;97332.31;;;12.18;78.27
21821;BME280;11073;48.586;12.066;2022-10-03T06:56:27;97326.06;;;12.17;78.51
21821;BME280;11073;48.586;12.066;2022-10-03T06:59:25;97331.91;;;12.14;77.80
21821;BME280;11073;48.586;12.066;2022-10-03T07:05:40;97332.66;;;12.21;77.94
21821;BME280;11073;48.586;12.066;2022-10-03T07:08:56;97346.16;;;12.28;77.88
21821;BME280;11073;48.586;12.066;2022-10-03T07:11:51;97346.31;;;12.33;77.84
21821;BME280;11073;48.586;12.066;2022-10-03T07:15:02;97343.53;;;12.39;77.55
21821;BME280;11073;48.586;12.066;2022-10-03T07:18:00;97345.53;;;12.44;77.15
21821;BME280;11073;48.586;12.066;2022-10-03T07:21:00;97346.59;;;12.43;76.67
21821;BME280;11073;48.586;12.066;2022-10-03T07:24:01;97348.00;;;12.46;76.15
21821;BME280;11073;48.586;12.066;2022-10-03T07:26:55;97353.38;;;12.52;76.15
21821;BME280;11073;48.586;12.066;2022-10-03T07:29:49;97351.63;;;12.58;75.87
21821;BME280;11073;48.586;12.066;2022-10-03T07:35:44;97364.47;;;12.81;75.27
21821;BME280;11073;48.586;12.066;2022-10-03T07:39:03;97359.25;;;12.97;74.98
21821;BME280;11073;48.586;12.066;2022-10-03T07:42:03;97365.41;;;13.05;74.04
21821;BME280;11073;48.586;12.066;2022-10-03T07:47:58;97368.31;;;12.91;73.31
21821;BME280;11073;48.586;12.066;2022-10-03T07:50:48;97366.78;;;12.95;72.92
21821;BME280;11073;48.586;12.066;2022-10-03T07:53:34;97378.03;;;12.99;72.72
21821;BME280;11073;48.586;12.066;2022-10-03T07:56:18;97377.56;;;13.02;72.01
21821;BME280;11073;48.586;12.066;2022-10-03T07:59:03;97375.94;;;13.13;71.59
21821;BME280;11073;48.586;12.066;2022-10-03T08:01:46;97386.03;;;13.24;71.46
21821;BME280;11073;48.586;12.066;2022-10-03T08:04:57;97378.84;;;13.30;71.02
21821;BME280;11073;48.586;12.066;2022-10-03T08:07:57;97385.22;;;13.23;70.64
21821;BME280;11073;48.586;12.066;2022-10-03T08:10:53;97385.22;;;13.23;70.50
21821;BME280;11073;48.586;12.066;2022-10-03T08:13:35;97391.28;;;13.37;70.34
21821;BME280;11073;48.586;12.066;2022-10-03T08:16:27;97388.31;;;13.39;69.94
21821;BME280;11073;48.586;12.066;2022-10-03T08:19:19;97387.78;;;13.48;69.90
21821;BME280;11073;48.586;12.066;2022-10-03T08:21:59;97390.28;;;13.62;69.66
21821;BME280;11073;48.586;12.066;2022-10-03T08:25:06;97396.75;;;13.61;69.19
21821;BME280;11073;48.586;12.066;2022-10-03T08:27:58;97400.19;;;13.56;68.88
21821;BME280;11073;48.586;12.066;2022-10-03T08:30:40;97403.75;;;13.68;68.73
21821;BME280;11073;48.586;12.066;2022-10-03T08:33:24;97411.59;;;13.76;68.50
21821;BME280;11073;48.586;12.066;2022-10-03T08:39:11;97413.00;;;13.79;67.80
21821;BME280;11073;48.586;12.066;2022-10-03T08:45:41;97415.75;;;14.14;67.33
21821;BME280;11073;48.586;12.066;2022-10-03T08:48:57;97421.06;;;14.21;67.35
21821;BME280;11073;48.586;12.066;2022-10-03T08:51:54;97423.03;;;14.60;67.17
21821;BME280;11073;48.586;12.066;2022-10-03T08:54:52;97421.13;;;14.61;66.66
21821;BME280;11073;48.586;12.066;2022-10-03T08:57:45;97409.78;;;14.52;66.03
21821;BME280;11073;48.586;12.066;2022-10-03T09:00:22;97425.31;;;14.52;65.51
21821;BME280;11073;48.586;12.066;2022-10-03T09:03:07;97420.19;;;14.44;65.55
21821;BME280;11073;48.586;12.066;2022-10-03T09:10:14;97416.06;;;14.29;65.30
21821;BME280;11073;48.586;12.066;2022-10-03T09:13:19;97417.63;;;14.14;65.34
21821;BME280;11073;48.586;12.066;2022-10-03T09:16:27;97408.84;;;14.23;65.64
21821;BME280;11073;48.586;12.066;2022-10-03T09:19:18;97420.88;;;14.62;65.30
21821;BME280;11073;48.586;12.066;2022-10-03T09:22:05;97413.78;;;14.73;64.91
21821;BME280;11073;48.586;12.066;2022-10-03T09:25:02;97412.06;;;14.84;64.89
21821;BME280;11073;48.586;12.066;2022-10-03T09:30:47;97410.94;;;15.25;64.08
21821;BME280;11073;48.586;12.066;2022-10-03T09:36:54;97424.59;;;15.25;63.22
21821;BME280;11073;48.586;12.066;2022-10-03T09:46:16;97431.91;;;15.65;61.47
21821;BME280;11073;48.586;12.066;2022-10-03T09:49:30;97431.28;;;15.63;60.89
21821;BME280;11073;48.586;12.066;2022-10-03T09:52:21;97429.03;;;15.60;60.58
21821;BME280;11073;48.586;12.066;2022-10-03T09:55:19;97426.22;;;15.55;60.27
21821;BME280;11073;48.586;12.066;2022-10-03T10:01:09;97416.97;;;15.27;59.41
21821;BME280;11073;48.586;12.066;2022-10-03T10:04:11;97424.91;;;15.57;59.75
21821;BME280;11073;48.586;12.066;2022-10-03T10:14:10;97421.59;;;17.27;57.50
21821;BME280;11073;48.586;12.066;2022-10-03T10:20:03;97417.28;;;17.90;55.88
21821;BME280;11073;48.586;12.066;2022-10-03T10:22:57;97418.88;;;18.18;55.10
21821;BME280;11073;48.586;12.066;2022-10-03T10:29:05;97425.81;;;18.78;53.91
21821;BME280;11073;48.586;12.066;2022-10-03T10:35:26;97430.75;;;17.97;52.08
21821;BME280;11073;48.586;12.066;2022-10-03T10:38:27;97418.13;;;17.36;52.23
21821;BME280;11073;48.586;12.066;2022-10-03T10:41:29;97417.06;;;17.97;52.69
21821;BME280;11073;48.586;12.066;2022-10-03T10:44:40;97410.44;;;17.92;51.82
21821;BME280;11073;48.586;12.066;2022-10-03T10:57:01;97414.97;;;18.61;50.52
21821;BME280;11073;48.586;12.066;2022-10-03T11:00:02;97411.31;;;17.98;50.19
21821;BME280;11073;48.586;12.066;2022-10-03T11:03:22;97416.47;;;17.35;50.19
21821;BME280;11073;48.586;12.066;2022-10-03T11:09:29;97400.22;;;17.02;50.48
21821;BME280;11073;48.586;12.066;2022-10-03T11:18:56;97407.81;;;17.71;50.46
21821;BME280;11073;48.586;12.066;2022-10-03T11:22:01;97409.28;;;18.21;50.37
21821;BME280;11073;48.586;12.066;2022-10-03T11:34:34;97407.06;;;19.48;46.53
21821;BME280;11073;48.586;12.066;2022-10-03T11:37:38;97403.56;;;18.69;46.72
21821;BME280;11073;48.586;12.066;2022-10-03T11:40:28;97406.38;;;18.37;47.28
21821;BME280;11073;48.586;12.066;2022-10-03T11:43:20;97409.25;;;18.15;47.44
21821;BME280;11073;48.586;12.066;2022-10-03T11:45:54;97409.88;;;17.90;48.02
21821;BME280;11073;48.586;12.066;2022-10-03T11:48:37;97409.00;;;17.85;48.27
21821;BME280;11073;48.586;12.066;2022-10-03T11:51:11;97401.97;;;17.67;48.21
21821;BME280;11073;48.586;12.066;2022-10-03T11:53:45;97392.38;;;17.64;49.13
21821;BME280;11073;48.586;12.066;2022-10-03T11:56:23;97390.69;;;17.58;48.87
21821;BME280;11073;48.586;12.066;2022-10-03T11:59:12;97392.16;;;17.39;49.34
21821;BME280;11073;48.586;12.066;2022-10-03T12:02:05;97391.75;;;17.25;49.23
21821;BME280;11073;48.586;12.066;2022-10-03T12:04:45;97385.94;;;17.22;49.39
21821;BME280;11073;48.586;12.066;2022-10-03T12:07:34;97397.22;;;17.25;49.54
21821;BME280;11073;48.586;12.066;2022-10-03T12:10:34;97369.19;;;18.09;49.86
21821;BME280;11073;48.586;12.066;2022-10-03T12:13:09;97392.75;;;19.25;49.16
21821;BME280;11073;48.586;12.066;2022-10-03T12:15:45;97388.38;;;19.24;48.01
21821;BME280;11073;48.586;12.066;2022-10-03T12:18:20;97383.13;;;19.18;47.54
21821;BME280;11073;48.586;12.066;2022-10-03T12:21:04;97375.41;;;18.94;47.67
21821;BME280;11073;48.586;12.066;2022-10-03T12:23:55;97381.19;;;19.03;47.45
21821;BME280;11073;48.586;12.066;2022-10-03T12:26:38;97381.03;;;19.96;47.94
21821;BME280;11073;48.586;12.066;2022-10-03T12:29:11;97365.63;;;20.16;46.99
21821;BME280;11073;48.586;12.066;2022-10-03T12:31:48;97381.22;;;20.61;46.09
21821;BME280;11073;48.586;12.066;2022-10-03T12:34:35;97383.81;;;21.02;45.57
21821;BME280;11073;48.586;12.066;2022-10-03T12:37:26;97372.34;;;21.39;44.64
21821;BME280;11073;48.586;12.066;2022-10-03T12:40:05;97389.84;;;21.92;44.02
21821;BME280;11073;48.586;12.066;2022-10-03T12:42:41;97381.06;;;22.19;43.43
21821;BME280;11073;48.586;12.066;2022-10-03T12:45:20;97377.84;;;22.07;42.63
21821;BME280;11073;48.586;12.066;2022-10-03T12:48:01;97372.66;;;21.27;42.44
21821;BME280;11073;48.586;12.066;2022-10-03T12:50:44;97377.53;;;21.45;43.12
21821;BME280;11073;48.586;12.066;2022-10-03T12:53:23;97384.63;;;22.25;42.60
21821;BME280;11073;48.586;12.066;2022-10-03T12:56:12;97380.22;;;22.24;42.25
21821;BME280;11073;48.586;12.066;2022-10-03T12:58:48;97375.06;;;21.78;42.00
21821;BME280;11073;48.586;12.066;2022-10-03T13:01:25;97380.31;;;21.40;41.77
21821;BME280;11073;48.586;12.066;2022-10-03T13:03:58;97380.97;;;21.17;41.58
21821;BME280;11073;48.586;12.066;2022-10-03T13:06:38;97376.31;;;20.43;41.91
21821;BME280;11073;48.586;12.066;2022-10-03T13:09:55;97375.28;;;19.88;42.75
21821;BME280;11073;48.586;12.066;2022-10-03T13:12:34;97369.22;;;19.60;43.17
21821;BME280;11073;48.586;12.066;2022-10-03T13:15:40;97369.50;;;19.48;43.96
21821;BME280;11073;48.586;12.066;2022-10-03T13:21:04;97385.38;;;20.28;43.76
21821;BME280;11073;48.586;12.066;2022-10-03T13:23:58;97374.72;;;20.01;43.90
21821;BME280;11073;48.586;12.066;2022-10-03T13:26:45;97371.44;;;19.63;43.95
21821;BME280;11073;48.586;12.066;2022-10-03T13:29:25;97356.53;;;19.23;44.71
21821;BME280;11073;48.586;12.066;2022-10-03T13:32:11;97367.75;;;19.12;44.89
21821;BME280;11073;48.586;12.066;2022-10-03T13:38:16;97357.00;;;18.85;45.98
21821;BME280;11073;48.586;12.066;2022-10-03T13:40:55;97353.69;;;18.83;46.06
21821;BME280;11073;48.586;12.066;2022-10-03T13:43:31;97352.84;;;18.77;46.20
21821;BME280;11073;48.586;12.066;2022-10-03T13:46:11;97366.81;;;18.76;46.53
21821;BME280;11073;48.586;12.066;2022-10-03T13:48:43;97350.09;;;18.72;46.40
21821;BME280;11073;48.586;12.066;2022-10-03T13:51:25;97349.13;;;19.24;46.42
21821;BME280;11073;48.586;12.066;2022-10-03T13:54:00;97350.78;;;20.22;46.39
21821;BME280;11073;48.586;12.066;2022-10-03T13:56:42;97356.56;;;20.10;45.35
21821;BME280;11073;48.586;12.066;2022-10-03T13:59:30;97345.31;;;19.91;44.99
21821;BME280;11073;48.586;12.066;2022-10-03T14:02:17;97348.63;;;19.68;44.80
21821;BME280;11073;48.586;12.066;2022-10-03T14:05:03;97345.88;;;19.42;44.69
21821;BME280;11073;48.586;12.066;2022-10-03T14:07:41;97345.78;;;19.12;44.70
21821;BME280;11073;48.586;12.066;2022-10-03T14:10:33;97344.94;;;18.96;45.35
21821;BME280;11073;48.586;12.066;2022-10-03T14:13:12;97353.94;;;18.81;45.39
21821;BME280;11073;48.586;12.066;2022-10-03T14:15:51;97346.78;;;18.70;45.41
21821;BME280;11073;48.586;12.066;2022-10-03T14:18:38;97338.78;;;18.63;45.94
21821;BME280;11073;48.586;12.066;2022-10-03T14:21:47;97343.16;;;18.64;46.23
21821;BME280;11073;48.586;12.066;2022-10-03T14:24:31;97344.97;;;19.06;45.92
21821;BME280;11073;48.586;12.066;2022-10-03T14:27:11;97344.47;;;19.55;46.03
21821;BME280;11073;48.586;12.066;2022-10-03T14:29:54;97349.97;;;19.55;45.53
21821;BME280;11073;48.586;12.066;2022-10-03T14:32:30;97338.41;;;19.22;45.74
21821;BME280;11073;48.586;12.066;2022-10-03T14:35:32;97343.59;;;18.98;45.95
21821;BME280;11073;48.586;12.066;2022-10-03T14:38:17;97347.63;;;18.81;46.15
21821;BME280;11073;48.586;12.066;2022-10-03T14:40:57;97343.16;;;18.64;46.13
21821;BME280;11073;48.586;12.066;2022-10-03T14:43:37;97341.72;;;18.41;46.61
21821;BME280;11073;48.586;12.066;2022-10-03T14:46:09;97336.94;;;18.22;46.36
21821;BME280;11073;48.586;12.066;2022-10-03T14:48:43;97337.69;;;18.07;46.71
21821;BME280;11073;48.586;12.066;2022-10-03T14:51:20;97333.25;;;18.01;47.14
21821;BME280;11073;48.586;12.066;2022-10-03T14:53:52;97342.56;;;18.00;47.09
21821;BME280;11073;48.586;12.066;2022-10-03T14:56:24;97330.22;;;17.97;47.23
21821;BME280;11073;48.586;12.066;2022-10-03T14:58:56;97337.84;;;17.90;47.29
21821;BME280;11073;48.586;12.066;2022-10-03T15:01:27;97339.44;;;17.86;47.62
21821;BME280;11073;48.586;12.066;2022-10-03T15:03:59;97328.53;;;17.91;47.46
21821;BME280;11073;48.586;12.066;2022-10-03T15:06:49;97331.88;;;17.98;47.92
21821;BME280;11073;48.586;12.066;2022-10-03T15:09:23;97331.59;;;18.00;47.96
21821;BME280;11073;48.586;12.066;2022-10-03T15:11:55;97333.22;;;17.96;48.02
21821;BME280;11073;48.586;12.066;2022-10-03T15:14:28;97343.56;;;17.88;48.10
21821;BME280;11073;48.586;12.066;2022-10-03T15:17:00;97333.09;;;17.80;48.75
21821;BME280;11073;48.586;12.066;2022-10-03T15:19:39;97333.91;;;17.76;48.61
21821;BME280;11073;48.586;12.066;2022-10-03T15:22:20;97333.00;;;17.70;48.74
21821;BME280;11073;48.586;12.066;2022-10-03T15:24:52;97325.28;;;17.62;49.29
21821;BME280;11073;48.586;12.066;2022-10-03T15:27:22;97317.59;;;17.59;49.20
21821;BME280;11073;48.586;12.066;2022-10-03T15:29:54;97326.06;;;17.57;49.50
21821;BME280;11073;48.586;12.066;2022-10-03T15:32:29;97318.16;;;17.61;49.75
21821;BME280;11073;48.586;12.066;2022-10-03T15:35:01;97323.66;;;18.03;49.70
21821;BME280;11073;48.586;12.066;2022-10-03T15:37:35;97329.00;;;18.20;49.48
21821;BME280;11073;48.586;12.066;2022-10-03T15:40:20;97323.78;;;18.24;49.03
21821;BME280;11073;48.586;12.066;2022-10-03T15:43:01;97322.72;;;18.30;49.04
21821;BME280;11073;48.586;12.066;2022-10-03T15:45:31;97318.84;;;18.21;48.75
21821;BME280;11073;48.586;12.066;2022-10-03T15:48:04;97319.28;;;18.02;49.06
21821;BME280;11073;48.586;12.066;2022-10-03T15:50:40;97319.19;;;17.87;49.00
21821;BME280;11073;48.586;12.066;2022-10-03T15:53:19;97321.00;;;17.71;49.13
21821;BME280;11073;48.586;12.066;2022-10-03T15:56:10;97317.59;;;17.59;49.48
21821;BME280;11073;48.586;12.066;2022-10-03T15:58:46;97319.97;;;17.50;49.51
21821;BME280;11073;48.586;12.066;2022-10-03T16:01:19;97319.91;;;17.40;49.95
21821;BME280;11073;48.586;12.066;2022-10-03T16:03:50;97317.06;;;17.30;50.14
21821;BME280;11073;48.586;12.066;2022-10-03T16:06:23;97309.06;;;17.18;50.01
21821;BME280;11073;48.586;12.066;2022-10-03T16:09:10;97320.69;;;17.08;50.42
21821;BME280;11073;48.586;12.066;2022-10-03T16:11:48;97315.19;;;17.03;50.68
21821;BME280;11073;48.586;12.066;2022-10-03T16:14:23;97312.69;;;17.02;50.77
21821;BME280;11073;48.586;12.066;2022-10-03T16:16:56;97302.00;;;16.95;50.67
21821;BME280;11073;48.586;12.066;2022-10-03T16:19:30;97310.41;;;16.89;50.84
21821;BME280;11073;48.586;12.066;2022-10-03T16:22:12;97314.66;;;16.79;50.99
21821;BME280;11073;48.586;12.066;2022-10-03T16:24:53;97309.59;;;16.66;51.27
21821;BME280;11073;48.586;12.066;2022-10-03T16:27:26;97311.44;;;16.61;51.55
21821;BME280;11073;48.586;12.066;2022-10-03T16:30:18;97319.56;;;16.55;51.67